Time;durP1;ratioP1;P1;durP2;ratioP2;P2;SDS_P1;SDS_P2;PMS_P1;PMS_P2;Temp;Humidity;BMP_temperature;BMP_pressure;BME280_temperature;BME280_humidity;BME280_pressure;Samples;Min_cycle;Max_cycle;Signal;HPM_P1;HPM_P2
2022/06/12 00:00:52;;;;;;;7.97;4.60;;;;;;;;;;5022413;28;20404;-70
2022/06/12 00:03:21;;;;;;;8.38;4.50;;;;;;;;;;5012826;28;20057;-70
2022/06/12 00:05:50;;;;;;;5.78;4.68;;;;;;;;;;5029095;28;20068;-70
2022/06/12 00:08:17;;;;;;;5.03;4.53;;;;;;;;;;5025159;28;20046;-70
2022/06/12 00:10:46;;;;;;;6.97;4.43;;;;;;;;;;5014916;28;20335;-70
2022/06/12 00:13:14;;;;;;;6.68;4.35;;;;;;;;;;5025209;28;20108;-70
2022/06/12 00:15:41;;;;;;;7.22;4.25;;;;;;;;;;5013693;28;20057;-70
2022/06/12 00:18:08;;;;;;;5.72;4.85;;;;;;;;;;5014305;28;20493;-70
2022/06/12 00:20:36;;;;;;;5.30;4.00;;;;;;;;;;5033260;28;20415;-70
2022/06/12 00:23:10;;;;;;;5.95;4.30;;;;;;;;;;5033169;28;20049;-70
2022/06/12 00:25:37;;;;;;;5.35;4.60;;;;;;;;;;5023646;28;20056;-70
2022/06/12 00:28:05;;;;;;;9.63;4.68;;;;;;;;;;5014070;28;20057;-70
2022/06/12 00:30:32;;;;;;;6.45;4.97;;;;;;;;;;5033181;28;20127;-69
2022/06/12 00:32:59;;;;;;;5.10;4.55;;;;;;;;;;5023781;28;20050;-70
2022/06/12 00:35:30;;;;;;;5.78;4.47;;;;;;;;;;5013229;28;20045;-70
2022/06/12 00:37:56;;;;;;;6.20;4.43;;;;;;;;;;5012231;28;20053;-70
2022/06/12 00:40:24;;;;;;;8.30;5.30;;;;;;;;;;5012972;28;20050;-70
2022/06/12 00:42:55;;;;;;;8.10;4.97;;;;;;;;;;5012953;28;20053;-70
2022/06/12 00:45:42;;;;;;;6.25;4.95;;;;;;;;;;5013278;28;20049;-69
2022/06/12 00:48:28;;;;;;;8.00;5.13;;;;;;;;;;5032379;28;20049;-69
2022/06/12 00:51:01;;;;;;;6.95;4.65;;;;;;;;;;5032326;28;20056;-69
2022/06/12 00:53:46;;;;;;;8.27;5.60;;;;;;;;;;5032907;28;20053;-70
2022/06/12 00:56:22;;;;;;;5.97;5.20;;;;;;;;;;5032909;28;20057;-69
2022/06/12 00:58:53;;;;;;;6.13;4.95;;;;;;;;;;5005223;28;20054;-69
2022/06/12 01:01:28;;;;;;;6.05;4.60;;;;;;;;;;5015786;28;20080;-69
2022/06/12 01:06:43;;;;;;;8.13;4.90;;;;;;;;;;5031453;28;20057;-69
2022/06/12 01:09:15;;;;;;;5.32;4.70;;;;;;;;;;5031327;28;20056;-69
2022/06/12 01:11:44;;;;;;;6.43;5.63;;;;;;;;;;5041226;28;20057;-69
2022/06/12 01:14:13;;;;;;;10.25;6.07;;;;;;;;;;5025742;28;20140;-70
2022/06/12 01:16:45;;;;;;;8.88;5.40;;;;;;;;;;5032108;28;20053;-69
2022/06/12 01:19:22;;;;;;;7.68;5.90;;;;;;;;;;5031127;28;20052;-69
2022/06/12 01:22:10;;;;;;;8.88;4.38;;;;;;;;;;5004129;28;20050;-69
2022/06/12 01:25:06;;;;;;;5.72;5.13;;;;;;;;;;5012584;28;20057;-70
2022/06/12 01:27:52;;;;;;;6.15;5.28;;;;;;;;;;5003199;28;20057;-70
2022/06/12 01:30:21;;;;;;;6.25;4.57;;;;;;;;;;5012325;28;20042;-70
2022/06/12 01:33:00;;;;;;;5.75;5.13;;;;;;;;;;5010914;28;20054;-69
2022/06/12 01:35:36;;;;;;;5.20;4.70;;;;;;;;;;5012066;28;20558;-69
2022/06/12 01:38:21;;;;;;;8.05;5.30;;;;;;;;;;5045060;23;20042;-70
2022/06/12 01:41:06;;;;;;;5.38;4.63;;;;;;;;;;5027842;28;20048;-69
2022/06/12 01:43:51;;;;;;;8.68;5.30;;;;;;;;;;4996716;28;20505;-70
2022/06/12 01:46:28;;;;;;;7.10;5.22;;;;;;;;;;5015946;28;20358;-69
2022/06/12 01:49:06;;;;;;;6.13;4.40;;;;;;;;;;5032078;28;20057;-70
2022/06/12 01:51:54;;;;;;;6.03;4.97;;;;;;;;;;5031676;28;20054;-69
2022/06/12 01:54:23;;;;;;;6.93;5.38;;;;;;;;;;5031926;28;20045;-70
2022/06/12 01:57:07;;;;;;;6.15;5.43;;;;;;;;;;5029928;22;20046;-70
2022/06/12 01:59:38;;;;;;;6.15;4.38;;;;;;;;;;5010374;28;20046;-70
2022/06/12 02:02:15;;;;;;;7.65;5.70;;;;;;;;;;5011924;28;20104;-70
2022/06/12 02:04:56;;;;;;;7.65;5.20;;;;;;;;;;5010801;28;20050;-69
2022/06/12 02:07:52;;;;;;;5.47;4.97;;;;;;;;;;4989369;28;20311;-70
2022/06/12 02:10:30;;;;;;;7.30;4.63;;;;;;;;;;4990097;28;20045;-70
2022/06/12 02:13:11;;;;;;;7.95;5.55;;;;;;;;;;4960974;28;20057;-70
2022/06/12 02:15:44;;;;;;;9.40;5.13;;;;;;;;;;4987846;28;20054;-70
2022/06/12 02:18:29;;;;;;;7.20;5.32;;;;;;;;;;4991913;28;20055;-70
2022/06/12 02:21:09;;;;;;;7.20;5.50;;;;;;;;;;5002652;28;20058;-69
2022/06/12 02:23:48;;;;;;;6.55;5.43;;;;;;;;;;4994646;28;20061;-70
2022/06/12 02:26:30;;;;;;;5.78;4.82;;;;;;;;;;4960022;28;20058;-70
2022/06/12 02:29:07;;;;;;;5.78;5.25;;;;;;;;;;4960906;28;20440;-70
2022/06/12 02:31:41;;;;;;;8.77;5.90;;;;;;;;;;4975775;28;20061;-70
2022/06/12 02:34:14;;;;;;;8.90;5.57;;;;;;;;;;4990914;28;20145;-69
2022/06/12 02:36:45;;;;;;;11.00;5.72;;;;;;;;;;4978947;28;20049;-69
2022/06/12 02:39:28;;;;;;;8.15;5.78;;;;;;;;;;4974692;28;20050;-70
2022/06/12 02:42:02;;;;;;;5.90;5.32;;;;;;;;;;4974821;28;20050;-69
2022/06/12 02:44:42;;;;;;;6.45;5.90;;;;;;;;;;4974753;28;20061;-70
2022/06/12 02:47:12;;;;;;;9.05;6.30;;;;;;;;;;4974462;28;20058;-70
2022/06/12 02:49:39;;;;;;;8.77;5.82;;;;;;;;;;4997174;28;20493;-70
2022/06/12 02:52:34;;;;;;;5.97;5.47;;;;;;;;;;4994078;28;20057;-70
2022/06/12 02:55:25;;;;;;;9.60;5.45;;;;;;;;;;4974592;28;20058;-70
2022/06/12 02:57:51;;;;;;;10.90;6.57;;;;;;;;;;4993427;28;20061;-69
2022/06/12 03:00:24;;;;;;;6.97;5.45;;;;;;;;;;5003154;28;20053;-70
2022/06/12 03:03:09;;;;;;;6.68;5.40;;;;;;;;;;4997527;28;20057;-70
2022/06/12 03:05:39;;;;;;;7.43;5.78;;;;;;;;;;5014810;28;20520;-70
2022/06/12 03:08:14;;;;;;;6.13;5.50;;;;;;;;;;4981926;28;20054;-70
2022/06/12 03:10:47;;;;;;;9.05;6.43;;;;;;;;;;4998563;28;20049;-70
2022/06/12 03:13:15;;;;;;;7.75;5.25;;;;;;;;;;4962154;28;20058;-70
2022/06/12 03:15:41;;;;;;;6.00;5.40;;;;;;;;;;5008813;28;20050;-70
2022/06/12 03:18:11;;;;;;;8.27;6.60;;;;;;;;;;5015188;28;20050;-70
2022/06/12 03:21:03;;;;;;;8.27;6.43;;;;;;;;;;5014012;28;20081;-69
2022/06/12 03:23:32;;;;;;;7.97;5.88;;;;;;;;;;4997068;28;20050;-70
2022/06/12 03:25:59;;;;;;;6.63;6.03;;;;;;;;;;5015010;28;20050;-70
2022/06/12 03:28:32;;;;;;;6.22;5.53;;;;;;;;;;4997307;28;20141;-70
2022/06/12 03:31:15;;;;;;;6.13;5.63;;;;;;;;;;5014411;28;20425;-70
2022/06/12 03:33:57;;;;;;;6.82;6.03;;;;;;;;;;4983042;28;20045;-70
2022/06/12 03:36:38;;;;;;;9.52;6.78;;;;;;;;;;4997044;28;20045;-70
2022/06/12 03:39:16;;;;;;;7.53;5.38;;;;;;;;;;4981105;28;20485;-70
2022/06/12 03:41:52;;;;;;;6.50;5.80;;;;;;;;;;4982456;28;20088;-70
2022/06/12 03:44:34;;;;;;;5.85;5.05;;;;;;;;;;4981463;28;20054;-70
2022/06/12 03:47:10;;;;;;;7.65;5.80;;;;;;;;;;4998349;28;20046;-70
2022/06/12 03:49:59;;;;;;;6.50;5.80;;;;;;;;;;4981521;28;20050;-70
2022/06/12 03:52:54;;;;;;;9.07;5.55;;;;;;;;;;5013879;28;20058;-70
2022/06/12 03:58:34;;;;;;;8.27;5.68;;;;;;;;;;5013963;28;20262;-69
2022/06/12 04:01:01;;;;;;;7.15;5.85;;;;;;;;;;4982250;28;20452;-70
2022/06/12 04:03:36;;;;;;;8.25;5.68;;;;;;;;;;4980571;28;20058;-69
2022/06/12 04:06:07;;;;;;;7.68;5.38;;;;;;;;;;4980648;28;20058;-70
2022/06/12 04:08:41;;;;;;;6.18;5.57;;;;;;;;;;5013307;28;20049;-70
2022/06/12 04:11:08;;;;;;;8.10;5.38;;;;;;;;;;4996281;28;20042;-70
2022/06/12 04:13:37;;;;;;;6.15;5.13;;;;;;;;;;4996127;28;20567;-70
2022/06/12 04:16:08;;;;;;;6.38;5.10;;;;;;;;;;4996277;28;20057;-69
2022/06/12 04:18:35;;;;;;;5.65;4.97;;;;;;;;;;4996727;28;20054;-70
2022/06/12 04:21:24;;;;;;;6.15;5.53;;;;;;;;;;5013271;28;20061;-70
2022/06/12 04:23:53;;;;;;;5.45;4.90;;;;;;;;;;5013338;28;20416;-70
2022/06/12 04:26:33;;;;;;;6.15;4.60;;;;;;;;;;4995871;28;20398;-70
2022/06/12 04:29:12;;;;;;;6.40;4.78;;;;;;;;;;4997058;28;20054;-70
2022/06/12 04:31:42;;;;;;;5.00;4.50;;;;;;;;;;5013149;28;20053;-70
2022/06/12 04:34:49;;;;;;;8.20;4.72;;;;;;;;;;5013243;28;20060;-70
2022/06/12 04:37:19;;;;;;;5.90;4.38;;;;;;;;;;4969658;28;20054;-70
2022/06/12 04:39:46;;;;;;;5.10;4.60;;;;;;;;;;5012992;28;20064;-70
2022/06/12 04:42:15;;;;;;;4.90;4.50;;;;;;;;;;5013239;28;20054;-70
2022/06/12 04:44:42;;;;;;;6.53;4.68;;;;;;;;;;5013313;28;20070;-70
2022/06/12 04:47:11;;;;;;;5.88;4.78;;;;;;;;;;4995616;28;20401;-70
2022/06/12 04:49:38;;;;;;;6.30;4.15;;;;;;;;;;4979756;28;20053;-70
2022/06/12 04:52:07;;;;;;;5.22;4.28;;;;;;;;;;5012910;28;20053;-70
2022/06/12 04:54:35;;;;;;;9.73;5.53;;;;;;;;;;5012880;28;20054;-70
2022/06/12 04:57:01;;;;;;;6.20;4.55;;;;;;;;;;5005136;28;20456;-70
2022/06/12 04:59:28;;;;;;;7.50;4.70;;;;;;;;;;4993412;28;20046;-70
2022/06/12 05:01:55;;;;;;;5.35;4.30;;;;;;;;;;5004246;28;20056;-70
2022/06/12 05:04:23;;;;;;;4.95;4.45;;;;;;;;;;4995501;28;20133;-70
2022/06/12 05:06:50;;;;;;;5.05;4.65;;;;;;;;;;5006867;28;20054;-70
2022/06/12 05:09:18;;;;;;;5.28;4.65;;;;;;;;;;4992809;28;20501;-70
2022/06/12 05:11:45;;;;;;;7.88;4.15;;;;;;;;;;4992562;28;20046;-70
2022/06/12 05:14:12;;;;;;;4.78;4.28;;;;;;;;;;4992880;28;20057;-70
2022/06/12 05:16:43;;;;;;;7.32;4.38;;;;;;;;;;4992557;28;20116;-70
2022/06/12 05:19:12;;;;;;;6.63;4.65;;;;;;;;;;4975779;28;20074;-70
2022/06/12 05:21:40;;;;;;;5.50;4.35;;;;;;;;;;4991822;28;20379;-70
2022/06/12 05:24:06;;;;;;;6.25;4.97;;;;;;;;;;4993159;28;20057;-71
2022/06/12 05:26:33;;;;;;;7.18;5.68;;;;;;;;;;4994103;28;20052;-70
2022/06/12 05:29:01;;;;;;;6.65;4.85;;;;;;;;;;4990583;28;20054;-70
2022/06/12 05:31:28;;;;;;;7.10;4.32;;;;;;;;;;4973406;28;20054;-70
2022/06/12 05:33:55;;;;;;;5.15;4.18;;;;;;;;;;5002585;28;20437;-70
2022/06/12 05:36:22;;;;;;;4.88;4.47;;;;;;;;;;5010065;28;20064;-70
2022/06/12 05:38:49;;;;;;;4.40;4.03;;;;;;;;;;4976642;28;20069;-70
2022/06/12 05:41:16;;;;;;;8.68;5.13;;;;;;;;;;5009533;28;20049;-70
2022/06/12 05:43:43;;;;;;;5.85;4.80;;;;;;;;;;5000753;28;20058;-70
2022/06/12 05:46:11;;;;;;;5.60;4.50;;;;;;;;;;4990546;28;20144;-70
2022/06/12 05:48:39;;;;;;;5.38;4.53;;;;;;;;;;4990316;28;20046;-70
2022/06/12 05:51:06;;;;;;;5.50;4.80;;;;;;;;;;4990413;28;20050;-70
2022/06/12 05:53:36;;;;;;;4.90;4.50;;;;;;;;;;4998372;28;20061;-70
2022/06/12 05:56:07;;;;;;;6.40;4.28;;;;;;;;;;5009848;28;20061;-71
2022/06/12 05:58:36;;;;;;;5.15;4.28;;;;;;;;;;5009849;28;20054;-70
2022/06/12 06:01:04;;;;;;;5.55;5.03;;;;;;;;;;5009596;28;20050;-70
2022/06/12 06:03:31;;;;;;;5.43;4.75;;;;;;;;;;5002451;28;20058;-70
2022/06/12 06:05:58;;;;;;;7.88;5.30;;;;;;;;;;4990225;28;20062;-70
2022/06/12 06:08:25;;;;;;;6.65;4.57;;;;;;;;;;4956548;28;20047;-69
2022/06/12 06:10:52;;;;;;;4.85;4.20;;;;;;;;;;4990214;28;20093;-70
2022/06/12 06:13:18;;;;;;;6.35;5.18;;;;;;;;;;4990343;28;20062;-69
2022/06/12 06:15:47;;;;;;;6.18;5.57;;;;;;;;;;4990309;28;20073;-70
2022/06/12 06:18:14;;;;;;;7.55;5.00;;;;;;;;;;4990114;28;20205;-68
2022/06/12 06:20:41;;;;;;;6.55;4.88;;;;;;;;;;4989848;28;20054;-71
2022/06/12 06:23:08;;;;;;;7.18;4.88;;;;;;;;;;4993899;28;20057;-70
2022/06/12 06:25:36;;;;;;;6.13;4.63;;;;;;;;;;4983541;28;20528;-68
2022/06/12 06:28:03;;;;;;;6.15;4.72;;;;;;;;;;5001251;28;20097;-68
2022/06/12 06:30:30;;;;;;;6.65;4.60;;;;;;;;;;5004791;28;20130;-64
2022/06/12 06:32:56;;;;;;;6.55;4.82;;;;;;;;;;5002432;28;20045;-69
2022/06/12 06:35:23;;;;;;;5.60;4.60;;;;;;;;;;4999972;28;20050;-69
2022/06/12 06:37:51;;;;;;;7.72;4.30;;;;;;;;;;4999760;28;20459;-68
2022/06/12 06:40:23;;;;;;;7.25;4.88;;;;;;;;;;4999547;28;20054;-68
2022/06/12 06:42:49;;;;;;;7.75;4.97;;;;;;;;;;5002808;28;20038;-69
2022/06/12 06:48:03;;;;;;;5.90;4.25;;;;;;;;;;5001547;28;20421;-68
2022/06/12 06:50:31;;;;;;;7.93;4.55;;;;;;;;;;5003999;28;20062;-68
2022/06/12 06:52:59;;;;;;;5.35;4.00;;;;;;;;;;4998184;28;20203;-69
2022/06/12 06:55:26;;;;;;;4.65;3.75;;;;;;;;;;5000092;28;20050;-69
2022/06/12 06:57:54;;;;;;;5.60;3.53;;;;;;;;;;4998706;28;20050;-73
2022/06/12 07:00:24;;;;;;;3.75;3.35;;;;;;;;;;4988404;28;20045;-74
2022/06/12 07:02:51;;;;;;;5.40;4.05;;;;;;;;;;4997281;28;20065;-70
2022/06/12 07:05:18;;;;;;;9.02;3.95;;;;;;;;;;4999335;28;20056;-70
2022/06/12 07:07:45;;;;;;;5.57;3.85;;;;;;;;;;4999286;28;20053;-69
2022/06/12 07:10:15;;;;;;;4.82;3.63;;;;;;;;;;5001794;28;20077;-70
2022/06/12 07:12:42;;;;;;;7.07;3.55;;;;;;;;;;5000110;28;20054;-70
2022/06/12 07:15:10;;;;;;;7.93;4.00;;;;;;;;;;4998139;28;20058;-67
2022/06/12 07:17:37;;;;;;;4.82;3.78;;;;;;;;;;5003710;28;20046;-70
2022/06/12 07:20:04;;;;;;;4.25;3.70;;;;;;;;;;4999231;28;20073;-70
2022/06/12 07:22:30;;;;;;;6.22;3.80;;;;;;;;;;5000195;28;20065;-70
2022/06/12 07:24:57;;;;;;;6.00;3.67;;;;;;;;;;4982899;28;20042;-70
2022/06/12 07:27:23;;;;;;;6.25;4.15;;;;;;;;;;5001530;28;20049;-71
2022/06/12 07:29:50;;;;;;;6.25;4.00;;;;;;;;;;5000108;28;20057;-71
2022/06/12 07:32:17;;;;;;;4.75;3.35;;;;;;;;;;5001156;28;20046;-71
2022/06/12 07:34:44;;;;;;;3.85;3.35;;;;;;;;;;5000309;28;20047;-71
2022/06/12 07:37:10;;;;;;;5.18;3.90;;;;;;;;;;4999244;28;20053;-71
2022/06/12 07:39:37;;;;;;;5.40;3.20;;;;;;;;;;5000342;28;20056;-71
2022/06/12 07:42:04;;;;;;;3.85;3.35;;;;;;;;;;5000715;28;20054;-71
2022/06/12 07:44:33;;;;;;;5.32;3.63;;;;;;;;;;4999760;28;20520;-71
2022/06/12 07:47:00;;;;;;;4.47;3.40;;;;;;;;;;4999993;28;20112;-71
2022/06/12 07:49:28;;;;;;;5.88;3.60;;;;;;;;;;4983846;28;20050;-71
2022/06/12 07:51:55;;;;;;;5.15;3.42;;;;;;;;;;5002763;28;20045;-71
2022/06/12 07:54:22;;;;;;;4.95;3.30;;;;;;;;;;5003540;28;20046;-71
2022/06/12 07:56:49;;;;;;;5.28;3.33;;;;;;;;;;4999375;28;20061;-71
2022/06/12 07:59:16;;;;;;;4.72;3.20;;;;;;;;;;4998932;28;20575;-71
2022/06/12 08:01:43;;;;;;;5.10;2.50;;;;;;;;;;5000730;28;20057;-70
2022/06/12 08:04:10;;;;;;;5.07;3.00;;;;;;;;;;4999695;28;20124;-71
2022/06/12 08:06:37;;;;;;;4.53;2.97;;;;;;;;;;4999512;28;20050;-71
2022/06/12 08:09:07;;;;;;;3.70;2.90;;;;;;;;;;5002217;28;20543;-71
2022/06/12 08:11:34;;;;;;;6.47;3.42;;;;;;;;;;4999989;28;20054;-71
2022/06/12 08:14:01;;;;;;;4.32;2.88;;;;;;;;;;4999734;28;20420;-71
2022/06/12 08:16:28;;;;;;;5.20;2.67;;;;;;;;;;4999944;28;20057;-71
2022/06/12 08:18:55;;;;;;;2.80;2.50;;;;;;;;;;4999215;28;20149;-71
2022/06/12 08:21:22;;;;;;;5.90;3.08;;;;;;;;;;5000973;28;20042;-71
2022/06/12 08:23:55;;;;;;;3.00;2.45;;;;;;;;;;4981868;28;20062;-72
2022/06/12 08:26:24;;;;;;;;;;;;;;;;;;4999905;28;20220;-71
2022/06/12 08:28:56;;;;;;;4.80;3.10;;;;;;;;;;5004577;28;20004;-70
2022/06/12 08:31:29;;;;;;;4.13;3.08;;;;;;;;;;5001378;28;20053;-70
2022/06/12 08:33:57;;;;;;;;;;;;;;;;;;5008526;28;20421;-70
2022/06/12 08:36:24;;;;;;;3.35;2.58;;;;;;;;;;4988782;28;19922;-70
2022/06/12 08:38:50;;;;;;;7.03;2.65;;;;;;;;;;5004394;28;20057;-70
2022/06/12 08:41:42;;;;;;;3.97;3.08;;;;;;;;;;5004407;28;20057;-70
2022/06/12 08:44:16;;;;;;;3.38;2.67;;;;;;;;;;5001265;28;20420;-70
2022/06/12 08:47:03;;;;;;;2.83;2.50;;;;;;;;;;4999813;28;20130;-70
2022/06/12 08:49:41;;;;;;;5.00;2.45;;;;;;;;;;4999055;28;20045;-70
2022/06/12 08:52:16;;;;;;;2.30;1.98;;;;;;;;;;5000896;28;20512;-70
2022/06/12 08:55:27;;;;;;;2.75;2.38;;;;;;;;;;4984722;28;20061;-70
2022/06/12 08:58:22;;;;;;;5.72;3.15;;;;;;;;;;4994034;28;20052;-71
2022/06/12 09:00:48;;;;;;;5.00;2.88;;;;;;;;;;4999257;28;20106;-68
2022/06/12 09:03:20;;;;;;;4.53;2.40;;;;;;;;;;5003670;28;20057;-68
2022/06/12 09:05:52;;;;;;;4.50;2.63;;;;;;;;;;4998423;28;20480;-68
2022/06/12 09:08:27;;;;;;;5.25;2.25;;;;;;;;;;4997681;28;20054;-68
2022/06/12 09:11:25;;;;;;;2.80;1.92;;;;;;;;;;5003640;28;20563;-68
2022/06/12 09:14:00;;;;;;;2.22;2.00;;;;;;;;;;5006756;28;20505;-68
2022/06/12 09:16:49;;;;;;;3.75;2.20;;;;;;;;;;4997910;28;20050;-68
2022/06/12 09:19:31;;;;;;;2.55;2.00;;;;;;;;;;5036676;23;20049;-70
2022/06/12 09:22:25;;;;;;;3.27;2.10;;;;;;;;;;5046897;28;20068;-70
2022/06/12 09:25:07;;;;;;;2.88;1.80;;;;;;;;;;5047899;28;20049;-69
2022/06/12 09:27:39;;;;;;;4.32;1.95;;;;;;;;;;5053033;28;20525;-69
2022/06/12 09:30:38;;;;;;;4.38;2.03;;;;;;;;;;5027989;28;20137;-70
2022/06/12 09:33:07;;;;;;;2.65;2.10;;;;;;;;;;5012535;28;20105;-69
2022/06/12 09:35:59;;;;;;;3.83;1.92;;;;;;;;;;5023590;28;20057;-70
2022/06/12 09:38:55;;;;;;;3.35;1.90;;;;;;;;;;5020077;28;20081;-69
2022/06/12 09:41:29;;;;;;;4.47;1.92;;;;;;;;;;5022398;28;20049;-69
2022/06/12 09:44:11;;;;;;;4.00;2.38;;;;;;;;;;5019220;28;20507;-70
2022/06/12 09:46:47;;;;;;;3.28;1.98;;;;;;;;;;5019269;28;20419;-70
2022/06/12 09:49:39;;;;;;;3.10;1.77;;;;;;;;;;5020987;28;20054;-69
2022/06/12 09:52:22;;;;;;;3.67;1.77;;;;;;;;;;5016408;28;20050;-69
2022/06/12 09:55:02;;;;;;;2.03;1.40;;;;;;;;;;5030445;28;20504;-69
2022/06/12 09:57:45;;;;;;;2.38;1.40;;;;;;;;;;5031681;28;20049;-70
2022/06/12 10:00:26;;;;;;;1.95;1.40;;;;;;;;;;5010781;28;20061;-69
2022/06/12 10:03:10;;;;;;;2.95;1.55;;;;;;;;;;5011192;28;20050;-69
2022/06/12 10:05:42;;;;;;;4.53;1.42;;;;;;;;;;5020040;28;20076;-69
2022/06/12 10:08:25;;;;;;;5.93;1.60;;;;;;;;;;5018287;28;20407;-69
2022/06/12 10:10:55;;;;;;;3.15;1.38;;;;;;;;;;5029974;28;20055;-69
2022/06/12 10:13:24;;;;;;;2.28;1.40;;;;;;;;;;5011542;28;20046;-70
2022/06/12 10:15:55;;;;;;;1.90;1.20;;;;;;;;;;5027864;28;20407;-71
2022/06/12 10:18:29;;;;;;;2.45;1.38;;;;;;;;;;5032297;28;20049;-70
2022/06/12 10:21:00;;;;;;;1.60;1.30;;;;;;;;;;5042457;28;20417;-76
2022/06/12 10:23:27;;;;;;;3.73;1.60;;;;;;;;;;5008518;28;20050;-72
2022/06/12 10:25:56;;;;;;;3.67;1.50;;;;;;;;;;5025461;28;20409;-70
2022/06/12 10:28:33;;;;;;;1.63;1.27;;;;;;;;;;5024283;28;20060;-71
2022/06/12 10:31:26;;;;;;;3.80;1.77;;;;;;;;;;5026039;28;20088;-73
2022/06/12 10:33:56;;;;;;;2.33;1.30;;;;;;;;;;5021030;28;20101;-74
2022/06/12 10:36:27;;;;;;;3.80;1.80;;;;;;;;;;5019490;28;20108;-77
2022/06/12 10:39:19;;;;;;;4.97;1.58;;;;;;;;;;5021358;28;20444;-70
2022/06/12 10:41:51;;;;;;;3.17;1.65;;;;;;;;;;5026558;28;20049;-76
2022/06/12 10:44:42;;;;;;;2.93;1.73;;;;;;;;;;5021568;28;20496;-67
2022/06/12 10:47:25;;;;;;;2.38;1.73;;;;;;;;;;5027784;28;20049;-68
2022/06/12 10:50:17;;;;;;;2.65;1.38;;;;;;;;;;5027173;28;20500;-68
2022/06/12 10:52:55;;;;;;;4.45;1.30;;;;;;;;;;5022575;28;20423;-68
2022/06/12 10:55:42;;;;;;;4.15;1.98;;;;;;;;;;5025074;28;20057;-69
2022/06/12 10:58:08;;;;;;;1.88;1.13;;;;;;;;;;5045780;28;20435;-70
2022/06/12 11:00:38;;;;;;;1.67;1.10;;;;;;;;;;5029382;28;20052;-69
2022/06/12 11:03:14;;;;;;;2.50;1.40;;;;;;;;;;5040653;28;20053;-71
2022/06/12 11:05:50;;;;;;;1.80;1.27;;;;;;;;;;5025790;28;20058;-68
2022/06/12 11:08:35;;;;;;;2.42;1.13;;;;;;;;;;5026514;28;20042;-72
2022/06/12 11:11:15;;;;;;;2.55;1.45;;;;;;;;;;5023499;28;20049;-71
2022/06/12 11:13:49;;;;;;;2.45;1.40;;;;;;;;;;5035848;28;20038;-70
2022/06/12 11:16:22;;;;;;;1.83;1.52;;;;;;;;;;5023446;28;20141;-69
2022/06/12 11:19:23;;;;;;;3.78;1.80;;;;;;;;;;5021178;28;20069;-68
2022/06/12 11:21:55;;;;;;;3.88;1.70;;;;;;;;;;5021320;28;20559;-69
2022/06/12 11:24:45;;;;;;;3.78;1.45;;;;;;;;;;5022790;28;20060;-68
2022/06/12 11:27:35;;;;;;;1.80;1.40;;;;;;;;;;5023983;28;20092;-67
2022/06/12 11:30:14;;;;;;;3.08;1.65;;;;;;;;;;5044874;28;20059;-68
2022/06/12 11:33:09;;;;;;;1.92;1.20;;;;;;;;;;5025454;28;20068;-68
2022/06/12 11:35:40;;;;;;;4.68;1.83;;;;;;;;;;5025577;28;20057;-68
2022/06/12 11:38:30;;;;;;;4.38;1.95;;;;;;;;;;5027343;28;20080;-68
2022/06/12 11:40:57;;;;;;;2.72;1.60;;;;;;;;;;5024789;28;20046;-68
2022/06/12 11:43:32;;;;;;;2.83;1.48;;;;;;;;;;5028924;28;20104;-68
2022/06/12 11:46:05;;;;;;;2.53;1.40;;;;;;;;;;5038236;28;20100;-68
2022/06/12 11:48:47;;;;;;;2.20;1.25;;;;;;;;;;5022426;28;20488;-68
2022/06/12 11:51:23;;;;;;;3.37;1.50;;;;;;;;;;5023346;28;20053;-68
2022/06/12 11:54:10;;;;;;;1.45;1.35;;;;;;;;;;5018574;28;20109;-68
2022/06/12 11:56:42;;;;;;;4.28;1.88;;;;;;;;;;5019410;28;20053;-68
2022/06/12 11:59:18;;;;;;;3.58;1.75;;;;;;;;;;5021450;28;20049;-68
2022/06/12 12:01:44;;;;;;;1.73;1.27;;;;;;;;;;5020608;28;20061;-68
2022/06/12 12:04:18;;;;;;;3.13;1.30;;;;;;;;;;5018734;28;20057;-68
2022/06/12 12:07:12;;;;;;;3.47;1.45;;;;;;;;;;5021084;28;20111;-68
2022/06/12 12:09:57;;;;;;;3.22;1.95;;;;;;;;;;5020833;28;20049;-68
2022/06/12 12:12:38;;;;;;;3.95;1.42;;;;;;;;;;5022812;28;20064;-68
2022/06/12 12:15:12;;;;;;;3.63;1.75;;;;;;;;;;5035035;28;20064;-68
2022/06/12 12:17:40;;;;;;;2.35;1.50;;;;;;;;;;5036522;28;20049;-68
2022/06/12 12:20:32;;;;;;;1.98;1.35;;;;;;;;;;5003246;28;20052;-68
2022/06/12 12:23:03;;;;;;;;;;;;;;;;;;5021717;28;20041;-69
2022/06/12 12:25:32;;;;;;;2.13;1.48;;;;;;;;;;5020035;28;19922;-69
2022/06/12 12:28:02;;;;;;;2.40;1.30;;;;;;;;;;5035825;28;20056;-69
2022/06/12 12:30:34;;;;;;;1.60;1.50;;;;;;;;;;5001475;28;20060;-68
2022/06/12 12:33:02;;;;;;;2.08;1.30;;;;;;;;;;5022676;28;20060;-68
2022/06/12 12:41:12;;;;;;;3.35;1.75;;;;;;;;;;5031043;28;20049;-68
2022/06/12 12:43:59;;;;;;;3.15;1.83;;;;;;;;;;5023051;28;20048;-68
2022/06/12 12:46:51;;;;;;;2.72;1.30;;;;;;;;;;5018951;28;20041;-68
2022/06/12 12:49:20;;;;;;;2.85;1.23;;;;;;;;;;5019646;28;20056;-68
2022/06/12 12:51:47;;;;;;;2.90;1.48;;;;;;;;;;5018029;28;20468;-68
2022/06/12 12:54:18;;;;;;;2.97;1.35;;;;;;;;;;5020007;28;20420;-67
2022/06/12 12:56:55;;;;;;;2.53;1.23;;;;;;;;;;5018926;28;20058;-67
2022/06/12 12:59:22;;;;;;;2.85;1.45;;;;;;;;;;5024987;28;20422;-67
2022/06/12 13:01:49;;;;;;;2.08;1.38;;;;;;;;;;5034496;28;20075;-67
2022/06/12 13:04:29;;;;;;;5.30;1.60;;;;;;;;;;5018704;28;20049;-67
2022/06/12 13:07:26;;;;;;;2.25;1.35;;;;;;;;;;5039745;28;20048;-67
2022/06/12 13:10:05;;;;;;;3.22;1.50;;;;;;;;;;5024778;28;20633;-67
2022/06/12 13:12:58;;;;;;;1.80;1.27;;;;;;;;;;5024736;28;20452;-67
2022/06/12 13:15:44;;;;;;;1.50;1.17;;;;;;;;;;5042464;28;20057;-67
2022/06/12 13:18:33;;;;;;;2.45;1.10;;;;;;;;;;5025423;28;20049;-67
2022/06/12 13:21:08;;;;;;;3.00;1.77;;;;;;;;;;5025749;28;20057;-67
2022/06/12 13:24:03;;;;;;;3.35;1.80;;;;;;;;;;5023030;28;20046;-67
2022/06/12 13:26:31;;;;;;;3.70;1.23;;;;;;;;;;5035978;28;20064;-67
2022/06/12 13:29:00;;;;;;;2.85;1.23;;;;;;;;;;4998930;28;20073;-67
2022/06/12 13:31:33;;;;;;;1.50;1.27;;;;;;;;;;5020737;28;20068;-68
2022/06/12 13:34:02;;;;;;;1.50;1.40;;;;;;;;;;5016737;28;20481;-67
2022/06/12 13:36:39;;;;;;;3.35;1.30;;;;;;;;;;5024212;28;20084;-67
2022/06/12 13:39:28;;;;;;;2.08;1.13;;;;;;;;;;5015167;28;20128;-67
2022/06/12 13:42:03;;;;;;;6.57;2.00;;;;;;;;;;5029916;28;20484;-67
2022/06/12 13:44:37;;;;;;;2.45;1.40;;;;;;;;;;5027934;28;20041;-67
2022/06/12 13:47:34;;;;;;;3.15;1.17;;;;;;;;;;5031647;28;20052;-67
2022/06/12 13:50:28;;;;;;;2.38;1.50;;;;;;;;;;5010185;28;20102;-70
2022/06/12 13:53:16;;;;;;;2.58;1.40;;;;;;;;;;5027040;28;20050;-67
2022/06/12 13:55:53;;;;;;;2.63;1.48;;;;;;;;;;5025784;28;20128;-69
2022/06/12 13:58:24;;;;;;;4.32;1.55;;;;;;;;;;5021965;28;20049;-70
2022/06/12 14:00:58;;;;;;;1.85;1.40;;;;;;;;;;4999379;28;20048;-69
2022/06/12 14:03:44;;;;;;;63.08;52.85;;;;;;;;;;5024161;28;20424;-69
2022/06/12 14:06:11;;;;;;;27.92;23.17;;;;;;;;;;5021468;28;20061;-68
2022/06/12 14:08:39;;;;;;;101.28;82.35;;;;;;;;;;5029727;28;20420;-69
2022/06/12 14:11:06;;;;;;;15.98;14.30;;;;;;;;;;5026743;28;20049;-69
2022/06/12 14:13:36;;;;;;;4.93;3.28;;;;;;;;;;5020612;28;20041;-68
2022/06/12 14:16:14;;;;;;;4.70;3.10;;;;;;;;;;5012001;28;20053;-70
2022/06/12 14:18:53;;;;;;;3.63;2.28;;;;;;;;;;5028095;28;20053;-69
2022/06/12 14:21:22;;;;;;;4.07;2.67;;;;;;;;;;5026294;28;20516;-70
2022/06/12 14:23:51;;;;;;;8.52;7.30;;;;;;;;;;5031711;28;20045;-69
2022/06/12 14:26:27;;;;;;;5.47;4.75;;;;;;;;;;5029083;28;20061;-69
2022/06/12 14:28:54;;;;;;;5.38;3.03;;;;;;;;;;5027794;28;20088;-69
2022/06/12 14:31:25;;;;;;;2.78;1.70;;;;;;;;;;5003215;28;20077;-68
2022/06/12 14:34:13;;;;;;;8.82;3.15;;;;;;;;;;5017378;28;20045;-69
2022/06/12 14:36:53;;;;;;;2.60;1.70;;;;;;;;;;5025271;28;20045;-69
2022/06/12 14:39:21;;;;;;;2.70;2.10;;;;;;;;;;5021503;28;20041;-69
2022/06/12 14:41:55;;;;;;;4.57;1.88;;;;;;;;;;5030806;28;20053;-69
2022/06/12 14:44:26;;;;;;;4.55;2.10;;;;;;;;;;5031717;28;20405;-69
2022/06/12 14:46:53;;;;;;;4.43;2.78;;;;;;;;;;5026230;28;20041;-69
2022/06/12 14:49:23;;;;;;;9.45;6.38;;;;;;;;;;5016176;28;20141;-70
2022/06/12 14:51:54;;;;;;;7.30;5.50;;;;;;;;;;5035295;28;20056;-68
2022/06/12 14:54:21;;;;;;;29.27;20.15;;;;;;;;;;5025358;28;20064;-68
2022/06/12 14:56:48;;;;;;;9.73;8.52;;;;;;;;;;5021261;28;20049;-68
2022/06/12 14:59:20;;;;;;;3.00;2.30;;;;;;;;;;5022016;28;20065;-66
2022/06/12 15:01:46;;;;;;;;;;;;;;;;;;5004861;28;20054;-66
2022/06/12 15:04:13;;;;;;;4.07;2.47;;;;;;;;;;5020623;28;20419;-67
2022/06/12 15:06:41;;;;;;;27.33;24.40;;;;;;;;;;5020978;28;20096;-66
2022/06/12 15:09:08;;;;;;;8.95;6.22;;;;;;;;;;5023936;28;20054;-66
2022/06/12 15:11:35;;;;;;;5.70;4.15;;;;;;;;;;5022229;28;20050;-66
2022/06/12 15:14:03;;;;;;;9.15;8.25;;;;;;;;;;5019392;28;20408;-67
2022/06/12 15:16:31;;;;;;;5.65;3.47;;;;;;;;;;5019684;28;20053;-67
2022/06/12 15:19:01;;;;;;;12.40;9.20;;;;;;;;;;5047158;22;20045;-69
2022/06/12 15:21:36;;;;;;;3.33;2.70;;;;;;;;;;5031824;28;20103;-67
2022/06/12 15:24:04;;;;;;;15.50;13.40;;;;;;;;;;5033197;28;20604;-68
2022/06/12 15:32:28;;;;;;;7.05;4.85;;;;;;;;;;5021519;28;20081;-67
2022/06/12 15:34:59;;;;;;;4.65;2.45;;;;;;;;;;5019734;28;20080;-68
2022/06/12 15:37:27;;;;;;;3.63;2.88;;;;;;;;;;5003998;28;20056;-67
2022/06/12 15:39:54;;;;;;;2.30;1.90;;;;;;;;;;5022596;28;20080;-66
2022/06/12 15:42:21;;;;;;;2.95;2.53;;;;;;;;;;5019866;28;20050;-66
2022/06/12 15:44:49;;;;;;;2.70;2.00;;;;;;;;;;5020618;28;20052;-68